Elvira, Argentina
Current Conditions -  °F | °C
As of 8:00 PM on Friday 31 Oct 2014 (Local Time) from SAEZ Reporting Station
Broken Clouds Broken Clouds  
Wind Chill: 61°   Ceiling: 4500
Heat Index: 61°   Visibility: 6mi
Dew Point: 54°   Wind: 14mph
Humidity: 77%   Direction: 160°SSE
Pressure: 30.03"   Gusts: NA
Location:  35.2°S, 59.35°W
Report Text: SAEZ 312300Z 16012KT 9999 BKN045 16/12 Q1017
Loading
Personal Weather Stations






























Interactive Weather Map New forecast layout! Learn more

10-Day Weather Forecast

Advertisements
Track Severe Weather on mobile